Rechercher aéroport 
image banner adimage banner adimage banner ad
image banner ad

O20 - Kingdon Airpark

Situé à Lodi, United States

ICAO - O20, IATA -

Données fournies par Airmate  

Information générale

Coordonnées: N38°5'30" W121°21'34"
Élévation : 15 feet MSL.
Variation magnétique : 16° East
Voir autres Aéroports à California

Données opérationnelles

Special qualification required
Heure actuelle UTC:
Heure actuelle locale:
Météo à : KSCK - Stockton Metropolitan ( 24 km )
METAR: KSCK 270355Z 35008KT 10SM CLR 26/11 A2988 RMK AO2 SLP116 T02560106
TAF: KSCK 262331Z 2700/2724 31011KT P6SM SCT150 FM270500 33008KT P6SM VCSH OVC150 FM271200 34004KT P6SM BKN150 FM271800 33005KT P6SM SCT200
Voir NOTAMs / SUP AIP / TFR affectant cet aéroport [VIEW]
Fréquences de communication: [VIEW]

Pistes:

Identifiant RWYQFULongueur (ft)Largeur (ft)SurfaceLDA (ft)
12370560ASPH
30370560ASPH

Coordonnées de l'aéroport

Adresse: Lodi United States

Vue satellite de O20